createdAt,value
2023-05-13T00:01:45.996Z,42.63
2023-05-13T00:04:13.563Z,42.41
2023-05-13T00:06:41.268Z,42.74
2023-05-13T00:09:08.791Z,42.72
2023-05-13T00:11:36.350Z,42.39
2023-05-13T00:14:04.288Z,42.31
2023-05-13T00:16:32.244Z,43.03
2023-05-13T00:18:59.805Z,42.98
2023-05-13T00:21:27.935Z,43.47
2023-05-13T00:23:55.862Z,43.68
2023-05-13T00:26:23.382Z,43.83
2023-05-13T00:28:51.277Z,43.87
2023-05-13T00:31:18.951Z,43.70
2023-05-13T00:33:46.356Z,44.05
2023-05-13T00:36:14.677Z,44.11
2023-05-13T00:38:44.410Z,44.13
2023-05-13T00:41:12.888Z,44.06
2023-05-13T00:43:40.593Z,44.21
2023-05-13T00:46:08.395Z,44.22
2023-05-13T00:48:36.201Z,44.28
2023-05-13T00:51:04.546Z,44.47
2023-05-13T00:53:34.170Z,44.88
2023-05-13T00:56:02.292Z,44.41
2023-05-13T00:58:29.797Z,44.19
2023-05-13T01:01:09.205Z,44.38
2023-05-13T01:04:12.404Z,44.92
2023-05-13T01:06:52.605Z,44.89
2023-05-13T01:09:39.559Z,45.03
2023-05-13T01:12:19.241Z,45.33
2023-05-13T01:14:55.485Z,45.22
2023-05-13T01:17:33.474Z,44.87
2023-05-13T01:20:05.213Z,44.90
2023-05-13T01:22:32.890Z,44.36
2023-05-13T01:25:01.183Z,44.35
2023-05-13T01:27:30.912Z,44.58
2023-05-13T01:29:58.632Z,44.30
2023-05-13T01:32:32.440Z,44.50
2023-05-13T01:35:01.218Z,44.65
2023-05-13T01:37:31.705Z,44.40
2023-05-13T01:39:59.483Z,44.47
2023-05-13T01:42:30.025Z,44.77
2023-05-13T01:44:58.548Z,44.68
2023-05-13T01:47:26.110Z,44.63
2023-05-13T01:49:53.725Z,44.25
2023-05-13T01:52:21.324Z,44.30
2023-05-13T01:54:49.147Z,44.01
2023-05-13T01:57:16.886Z,43.81
2023-05-13T01:59:44.486Z,44.21
2023-05-13T02:02:12.783Z,44.62
2023-05-13T02:04:40.294Z,44.84
2023-05-13T02:07:07.834Z,44.74
2023-05-13T02:09:35.425Z,44.98
2023-05-13T02:12:06.192Z,44.86
2023-05-13T02:14:33.687Z,44.75
2023-05-13T02:17:03.611Z,44.79
2023-05-13T02:19:31.292Z,44.54
2023-05-13T02:21:58.837Z,44.34
2023-05-13T02:24:26.490Z,44.55
2023-05-13T02:26:54.748Z,44.58
2023-05-13T02:29:22.269Z,44.14
2023-05-13T02:31:49.832Z,44.33
2023-05-13T02:34:17.865Z,44.40
2023-05-13T02:36:45.501Z,44.21
2023-05-13T02:39:13.232Z,43.97
2023-05-13T02:41:40.785Z,43.44
2023-05-13T02:44:08.492Z,43.29
2023-05-13T02:46:36.128Z,43.10
2023-05-13T02:49:03.863Z,42.41
2023-05-13T02:51:32.279Z,42.07
2023-05-13T02:53:59.890Z,41.86
2023-05-13T02:56:28.044Z,41.29
2023-05-13T02:58:56.392Z,40.82
2023-05-13T03:01:24.065Z,40.47
2023-05-13T03:03:51.558Z,39.91
2023-05-13T03:06:19.173Z,40.01
2023-05-13T03:08:46.726Z,39.66
2023-05-13T03:11:14.246Z,39.46
2023-05-13T03:13:41.797Z,39.12
2023-05-13T03:16:10.224Z,39.14
2023-05-13T03:18:37.717Z,38.58
2023-05-13T03:21:05.283Z,38.39
2023-05-13T03:23:34.023Z,38.06
2023-05-13T03:26:02.487Z,37.90
2023-05-13T03:28:31.586Z,37.53
2023-05-13T03:30:59.197Z,37.36
2023-05-13T03:33:30.065Z,36.97
2023-05-13T03:35:57.956Z,36.80
2023-05-13T03:38:29.970Z,36.28
2023-05-13T03:40:57.892Z,35.52
2023-05-13T03:43:26.358Z,35.28
2023-05-13T03:45:58.755Z,34.31
2023-05-13T03:48:27.829Z,33.88
2023-05-13T03:50:58.114Z,33.55
2023-05-13T03:53:25.653Z,33.32
2023-05-13T03:55:54.893Z,32.61
2023-05-13T03:58:23.085Z,32.04
2023-05-13T04:00:50.820Z,31.54
2023-05-13T04:03:19.020Z,31.13
2023-05-13T04:05:47.481Z,30.83
2023-05-13T04:08:15.550Z,30.28
2023-05-13T04:10:43.996Z,30.62
2023-05-13T04:13:11.805Z,30.24
2023-05-13T04:15:39.324Z,29.94
2023-05-13T04:18:07.091Z,29.43
2023-05-13T04:20:35.273Z,29.24
2023-05-13T04:23:02.801Z,29.40
2023-05-13T04:25:30.317Z,28.61
2023-05-13T04:27:58.050Z,28.63
2023-05-13T04:30:30.776Z,28.08
2023-05-13T04:32:58.248Z,27.59
2023-05-13T04:35:26.432Z,27.13
2023-05-13T04:37:58.149Z,26.73
2023-05-13T04:40:26.775Z,26.21
2023-05-13T04:42:56.555Z,25.82
2023-05-13T04:45:28.922Z,24.86
2023-05-13T04:47:58.366Z,24.67
2023-05-13T04:50:26.590Z,24.22
2023-05-13T04:52:55.099Z,23.46
2023-05-13T04:55:23.758Z,23.42
2023-05-13T04:57:51.808Z,23.29
2023-05-13T05:00:19.514Z,22.49
2023-05-13T05:02:49.519Z,21.58
2023-05-13T05:05:18.567Z,21.10
2023-05-13T05:07:46.980Z,21.25
2023-05-13T05:10:15.856Z,20.74
2023-05-13T05:12:49.149Z,20.82
2023-05-13T05:15:16.737Z,20.59
2023-05-13T05:17:47.992Z,20.27
2023-05-13T05:20:17.192Z,19.95
2023-05-13T05:22:48.725Z,20.14
2023-05-13T05:25:18.082Z,19.26
2023-05-13T05:27:45.565Z,19.02
2023-05-13T05:30:13.740Z,18.95
2023-05-13T05:32:41.724Z,18.77
2023-05-13T05:35:09.760Z,18.98
2023-05-13T05:37:37.362Z,18.17
2023-05-13T05:40:06.228Z,18.26
2023-05-13T05:42:38.526Z,18.51
2023-05-13T05:45:06.698Z,18.61
2023-05-13T05:47:34.405Z,18.96
2023-05-13T05:50:02.358Z,19.29
2023-05-13T05:52:30.875Z,19.73
2023-05-13T05:54:58.976Z,20.01
2023-05-13T05:57:26.403Z,20.14
2023-05-13T05:59:54.011Z,20.44
2023-05-13T06:02:21.661Z,20.78
2023-05-13T06:04:51.924Z,20.83
2023-05-13T06:07:20.732Z,20.99
2023-05-13T06:09:48.668Z,21.25
2023-05-13T06:12:16.269Z,21.17
2023-05-13T06:14:44.006Z,21.45
2023-05-13T06:17:11.491Z,21.46
2023-05-13T06:19:38.936Z,21.46
2023-05-13T06:22:06.457Z,21.77
2023-05-13T06:24:36.377Z,22.05
2023-05-13T06:27:04.183Z,22.11
2023-05-13T06:29:31.798Z,21.86
2023-05-13T06:31:59.376Z,22.11
2023-05-13T06:34:26.920Z,22.42
2023-05-13T06:36:54.837Z,22.80
2023-05-13T06:39:22.434Z,22.75
2023-05-13T06:41:50.287Z,22.69
2023-05-13T06:44:17.796Z,22.95
2023-05-13T06:46:47.636Z,23.15
2023-05-13T06:49:15.151Z,22.99
2023-05-13T06:51:42.742Z,23.27
2023-05-13T06:54:10.237Z,23.07
2023-05-13T06:56:37.723Z,23.14
2023-05-13T06:59:05.255Z,23.21
2023-05-13T07:01:32.797Z,23.25
2023-05-13T07:04:00.508Z,23.24
2023-05-13T07:06:28.037Z,23.23
2023-05-13T07:08:55.560Z,22.80
2023-05-13T07:11:22.996Z,22.32
2023-05-13T07:13:50.633Z,21.73
2023-05-13T07:16:18.281Z,21.48
2023-05-13T07:18:46.015Z,19.86
2023-05-13T07:21:15.847Z,20.17
2023-05-13T07:23:44.548Z,20.67
2023-05-13T07:26:12.559Z,20.70
2023-05-13T07:28:40.177Z,20.64
2023-05-13T07:31:07.978Z,20.93
2023-05-13T07:33:36.565Z,20.92
2023-05-13T07:36:04.293Z,21.13
2023-05-13T07:38:31.811Z,21.46
2023-05-13T07:40:59.308Z,21.57
2023-05-13T07:43:28.141Z,21.75
2023-05-13T07:45:55.935Z,21.58
2023-05-13T07:48:25.607Z,21.50
2023-05-13T07:50:53.076Z,21.74
2023-05-13T07:53:21.832Z,21.84
2023-05-13T07:55:49.413Z,21.61
2023-05-13T07:58:18.839Z,21.50
2023-05-13T08:00:46.374Z,21.14
2023-05-13T08:03:13.927Z,20.94
2023-05-13T08:05:41.674Z,21.02
2023-05-13T08:08:09.204Z,20.90
2023-05-13T08:10:36.719Z,20.97
2023-05-13T08:13:04.135Z,20.65
2023-05-13T08:15:31.632Z,20.78
2023-05-13T08:17:59.059Z,20.85
2023-05-13T08:20:30.364Z,20.36
2023-05-13T08:22:58.658Z,20.39
2023-05-13T08:25:26.492Z,20.51
2023-05-13T08:27:54.199Z,20.20
2023-05-13T08:30:22.145Z,19.44
2023-05-13T08:32:49.721Z,19.47
2023-05-13T08:35:17.265Z,19.32
2023-05-13T08:37:44.773Z,19.61
2023-05-13T08:40:12.568Z,19.32
2023-05-13T08:42:41.331Z,18.86
2023-05-13T08:45:10.440Z,19.07
2023-05-13T08:47:56.894Z,18.82
2023-05-13T08:50:26.004Z,18.29
2023-05-13T08:52:56.664Z,18.45
2023-05-13T08:55:27.440Z,18.60
2023-05-13T08:57:55.264Z,17.84
2023-05-13T09:00:22.772Z,17.49
2023-05-13T09:02:51.504Z,17.56
2023-05-13T09:05:20.556Z,17.74
2023-05-13T09:07:48.275Z,17.50
2023-05-13T09:10:18.033Z,17.90
2023-05-13T09:12:49.374Z,17.60
2023-05-13T09:15:22.456Z,17.84
2023-05-13T09:18:02.594Z,17.73
2023-05-13T09:20:31.322Z,17.95
2023-05-13T09:23:20.897Z,17.78
2023-05-13T09:25:48.504Z,17.41
2023-05-13T09:28:16.153Z,17.29
2023-05-13T09:30:46.832Z,17.51
2023-05-13T09:33:16.545Z,17.59
2023-05-13T09:35:49.173Z,17.38
2023-05-13T09:38:22.078Z,17.29
2023-05-13T09:41:00.969Z,17.40
2023-05-13T09:43:32.739Z,17.31
2023-05-13T09:46:05.241Z,17.96
2023-05-13T09:48:33.869Z,17.54
2023-05-13T09:51:01.751Z,17.26
2023-05-13T09:53:29.319Z,17.63
2023-05-13T09:55:58.133Z,17.18
2023-05-13T09:58:28.843Z,17.23
2023-05-13T10:00:57.111Z,17.07
2023-05-13T10:03:25.125Z,17.41
2023-05-13T10:05:53.949Z,17.23
2023-05-13T10:08:22.656Z,16.94
2023-05-13T10:10:53.596Z,17.10
2023-05-13T10:13:24.706Z,17.56
2023-05-13T10:15:54.574Z,17.74
2023-05-13T10:18:24.350Z,17.71
2023-05-13T10:20:55.167Z,18.13
2023-05-13T10:23:24.879Z,17.72
2023-05-13T10:25:54.523Z,18.48
2023-05-13T10:28:22.712Z,18.20
2023-05-13T10:30:51.691Z,17.98
2023-05-13T10:33:20.047Z,18.24
2023-05-13T10:36:06.255Z,18.01
2023-05-13T10:38:58.482Z,17.91
2023-05-13T10:41:54.767Z,18.28
2023-05-13T10:44:24.129Z,17.96
2023-05-13T10:46:51.832Z,18.13
2023-05-13T10:49:19.532Z,18.14
2023-05-13T10:51:49.531Z,18.50
2023-05-13T10:54:21.512Z,18.50
2023-05-13T10:56:59.541Z,18.79
2023-05-13T10:59:30.847Z,19.00
2023-05-13T11:02:02.342Z,18.79
2023-05-13T11:04:29.993Z,18.71
2023-05-13T11:07:16.890Z,18.59
2023-05-13T11:09:50.592Z,18.77
2023-05-13T11:12:18.120Z,18.88
2023-05-13T11:14:46.140Z,18.77
2023-05-13T11:17:14.427Z,18.58
2023-05-13T11:19:50.572Z,18.49
2023-05-13T11:22:24.480Z,18.85
2023-05-13T11:25:09.916Z,18.62
2023-05-13T11:27:41.901Z,18.90
2023-05-13T11:30:24.859Z,18.58
2023-05-13T11:32:56.404Z,17.96
2023-05-13T11:35:28.166Z,18.08
2023-05-13T11:37:58.389Z,18.12
2023-05-13T11:40:35.750Z,18.43
2023-05-13T11:43:05.391Z,18.19
2023-05-13T11:45:34.129Z,18.08
2023-05-13T11:48:22.500Z,18.35
2023-05-13T11:50:51.170Z,18.48
2023-05-13T11:53:25.342Z,18.66
2023-05-13T11:55:52.966Z,18.92
2023-05-13T11:58:21.773Z,19.13
2023-05-13T12:00:49.293Z,19.03
2023-05-13T12:03:16.961Z,19.36
2023-05-13T12:05:44.898Z,18.91
2023-05-13T12:08:12.469Z,19.46
2023-05-13T12:10:46.145Z,19.42
2023-05-13T12:13:14.152Z,19.20
2023-05-13T12:15:42.509Z,19.40
2023-05-13T12:18:10.220Z,19.21
2023-05-13T12:20:38.605Z,19.24
2023-05-13T12:23:06.770Z,18.91
2023-05-13T12:25:37.560Z,19.15
2023-05-13T12:28:20.291Z,18.96
2023-05-13T12:31:04.005Z,19.34
2023-05-13T12:33:32.370Z,19.28
2023-05-13T12:36:20.462Z,19.60
2023-05-13T12:39:05.610Z,19.14
2023-05-13T12:41:35.380Z,19.51
2023-05-13T12:44:10.094Z,19.45
2023-05-13T12:46:38.164Z,19.65
2023-05-13T12:49:06.305Z,19.70
2023-05-13T12:51:34.497Z,19.75
2023-05-13T12:54:02.173Z,19.86
2023-05-13T12:56:29.869Z,20.10
2023-05-13T12:58:58.051Z,20.24
2023-05-13T13:01:25.705Z,20.54
2023-05-13T13:03:53.295Z,20.14
2023-05-13T13:06:21.051Z,20.60
2023-05-13T13:08:48.619Z,20.67
2023-05-13T13:11:19.109Z,20.31
2023-05-13T13:13:47.096Z,20.67
2023-05-13T13:16:15.041Z,20.33
2023-05-13T13:18:43.274Z,20.57
2023-05-13T13:21:11.105Z,20.51
2023-05-13T13:23:38.709Z,20.51
2023-05-13T13:26:06.344Z,20.68
2023-05-13T13:28:33.951Z,20.84
2023-05-13T13:31:01.578Z,20.93
2023-05-13T13:33:29.079Z,20.76
2023-05-13T13:35:56.556Z,20.34
2023-05-13T13:38:24.134Z,20.94
2023-05-13T13:40:51.600Z,20.64
2023-05-13T13:43:19.832Z,20.59
2023-05-13T13:45:47.414Z,20.68
2023-05-13T13:48:14.985Z,20.58
2023-05-13T13:50:42.526Z,20.88
2023-05-13T13:53:10.047Z,21.06
2023-05-13T13:55:37.585Z,21.19
2023-05-13T13:58:05.266Z,21.17
2023-05-13T14:00:32.756Z,21.10
2023-05-13T14:03:01.846Z,21.01
2023-05-13T14:05:29.552Z,21.59
2023-05-13T14:07:57.130Z,21.66
2023-05-13T14:10:24.636Z,21.82
2023-05-13T14:12:52.296Z,21.96
2023-05-13T14:15:19.757Z,22.21
2023-05-13T14:17:47.326Z,21.61
2023-05-13T14:20:14.798Z,22.24
2023-05-13T14:22:42.268Z,21.97
2023-05-13T14:25:10.240Z,22.34
2023-05-13T14:27:37.772Z,22.41
2023-05-13T14:30:07.086Z,22.22
2023-05-13T14:32:34.988Z,22.03
2023-05-13T14:35:02.499Z,22.53
2023-05-13T14:37:31.200Z,22.40
2023-05-13T14:39:59.349Z,22.42
2023-05-13T14:42:26.869Z,22.46
2023-05-13T14:44:54.332Z,22.80
2023-05-13T14:47:21.840Z,23.58
2023-05-13T14:49:49.256Z,26.07
2023-05-13T14:52:16.670Z,26.38
2023-05-13T14:54:44.275Z,28.43
2023-05-13T14:57:11.855Z,29.10
2023-05-13T14:59:39.401Z,29.18
2023-05-13T15:02:06.998Z,30.33
2023-05-13T15:04:34.467Z,31.43
2023-05-13T15:07:03.628Z,31.49
2023-05-13T15:09:31.248Z,32.21
2023-05-13T15:11:58.690Z,32.59
2023-05-13T15:14:26.466Z,33.10
2023-05-13T15:16:54.061Z,33.43
2023-05-13T15:19:21.636Z,33.77
2023-05-13T15:21:49.078Z,34.23
2023-05-13T15:24:16.580Z,34.38
2023-05-13T15:26:44.116Z,34.68
2023-05-13T15:29:11.618Z,34.99
2023-05-13T15:31:39.040Z,35.73
2023-05-13T15:34:06.510Z,35.50
2023-05-13T15:36:37.027Z,36.25
2023-05-13T15:39:04.798Z,36.08
2023-05-13T15:41:32.362Z,36.47
2023-05-13T15:43:59.870Z,36.88
2023-05-13T15:46:27.510Z,37.27
2023-05-13T15:48:55.067Z,37.54
2023-05-13T15:51:22.661Z,37.23
2023-05-13T15:53:50.104Z,37.44
2023-05-13T15:56:17.711Z,38.69
2023-05-13T15:58:45.282Z,39.11
2023-05-13T16:01:12.961Z,39.61
2023-05-13T16:03:40.400Z,39.21
2023-05-13T16:06:07.959Z,39.53
2023-05-13T16:08:35.683Z,40.44
2023-05-13T16:11:04.007Z,40.37
2023-05-13T16:13:31.532Z,41.69
2023-05-13T16:15:59.035Z,41.53
2023-05-13T16:18:27.044Z,40.93
2023-05-13T16:20:55.192Z,41.18
2023-05-13T16:23:22.709Z,41.58
2023-05-13T16:25:50.319Z,41.82
2023-05-13T16:28:17.734Z,42.01
2023-05-13T16:30:45.269Z,42.62
2023-05-13T16:33:15.010Z,42.57
2023-05-13T16:35:42.471Z,42.36
2023-05-13T16:38:10.044Z,43.08
2023-05-13T16:40:37.530Z,43.46
2023-05-13T16:43:05.054Z,43.69
2023-05-13T16:45:32.505Z,43.61
2023-05-13T16:48:00.094Z,43.11
2023-05-13T16:50:27.875Z,44.57
2023-05-13T16:52:55.402Z,44.61
2023-05-13T16:55:22.964Z,44.84
2023-05-13T16:57:50.506Z,45.28
2023-05-13T17:00:18.231Z,44.54
2023-05-13T17:02:45.976Z,46.21
2023-05-13T17:05:13.423Z,46.25
2023-05-13T17:07:40.985Z,46.81
2023-05-13T17:10:08.978Z,46.49
2023-05-13T17:12:36.526Z,46.39
2023-05-13T17:15:04.455Z,47.41
2023-05-13T17:17:32.122Z,47.64
2023-05-13T17:19:59.671Z,48.26
2023-05-13T17:22:27.300Z,48.51
2023-05-13T17:24:54.746Z,48.45
2023-05-13T17:27:22.242Z,48.83
2023-05-13T17:29:49.753Z,48.79
2023-05-13T17:32:17.349Z,47.76
2023-05-13T17:34:44.868Z,49.07
2023-05-13T17:37:12.483Z,47.92
2023-05-13T17:39:39.990Z,48.94
2023-05-13T17:42:07.620Z,50.14
2023-05-13T17:44:35.142Z,49.72
2023-05-13T17:47:02.630Z,49.71
2023-05-13T17:49:30.192Z,50.43
2023-05-13T17:51:58.736Z,51.70
2023-05-13T17:54:26.313Z,52.54
2023-05-13T17:56:53.871Z,53.25
2023-05-13T17:59:22.948Z,52.45
2023-05-13T18:01:50.452Z,52.34
2023-05-13T18:04:17.964Z,53.00
2023-05-13T18:06:45.692Z,53.77
2023-05-13T18:09:13.218Z,54.13
2023-05-13T18:11:40.836Z,54.17
2023-05-13T18:14:08.501Z,55.60
2023-05-13T18:16:36.311Z,55.03
2023-05-13T18:19:04.027Z,56.48
2023-05-13T18:21:31.972Z,56.39
2023-05-13T18:23:59.515Z,55.23
2023-05-13T18:26:27.240Z,54.56
2023-05-13T18:28:54.707Z,55.23
2023-05-13T18:31:22.209Z,54.28
2023-05-13T18:33:49.754Z,55.77
2023-05-13T18:36:20.189Z,55.98
2023-05-13T18:38:48.281Z,56.59
2023-05-13T18:41:16.632Z,56.95
2023-05-13T18:43:44.056Z,57.76
2023-05-13T18:46:12.114Z,58.35
2023-05-13T18:48:39.831Z,58.58
2023-05-13T18:51:07.328Z,59.19
2023-05-13T18:53:34.850Z,59.56
2023-05-13T18:56:03.567Z,59.36
2023-05-13T18:58:31.076Z,59.96
2023-05-13T19:00:58.585Z,60.89
2023-05-13T19:03:27.209Z,60.74
2023-05-13T19:05:55.036Z,61.43
2023-05-13T19:08:22.904Z,61.33
2023-05-13T19:10:50.517Z,62.21
2023-05-13T19:13:20.105Z,61.97
2023-05-13T19:15:47.552Z,62.88
2023-05-13T19:18:15.381Z,62.54
2023-05-13T19:20:43.952Z,61.85
2023-05-13T19:23:11.539Z,62.99
2023-05-13T19:25:42.526Z,64.66
2023-05-13T19:28:11.550Z,64.83
2023-05-13T19:30:39.684Z,65.04
2023-05-13T19:33:08.324Z,66.68
2023-05-13T19:35:36.753Z,67.54
2023-05-13T19:38:04.205Z,68.32
2023-05-13T19:40:31.734Z,69.10
2023-05-13T19:42:59.253Z,66.88
2023-05-13T19:45:26.826Z,69.19
2023-05-13T19:47:54.358Z,70.07
2023-05-13T19:50:22.161Z,67.53
2023-05-13T19:52:49.866Z,69.82
2023-05-13T19:55:17.391Z,70.87
2023-05-13T19:57:44.874Z,69.99
2023-05-13T20:00:13.155Z,70.00
2023-05-13T20:02:40.971Z,69.76
2023-05-13T20:05:09.127Z,70.47
2023-05-13T20:07:36.654Z,70.48
2023-05-13T20:10:04.756Z,70.93
2023-05-13T20:12:32.693Z,71.24
2023-05-13T20:15:00.700Z,73.16
2023-05-13T20:17:28.339Z,73.72
2023-05-13T20:19:56.246Z,74.07
2023-05-13T20:22:23.749Z,75.50
2023-05-13T20:24:52.153Z,76.81
2023-05-13T20:27:19.524Z,76.08
2023-05-13T20:29:48.268Z,77.00
2023-05-13T20:32:21.507Z,76.49
2023-05-13T20:34:49.002Z,76.78
2023-05-13T20:37:17.185Z,75.86
2023-05-13T20:39:44.843Z,76.84
2023-05-13T20:42:12.352Z,78.34
2023-05-13T20:44:40.041Z,78.19
2023-05-13T20:47:08.053Z,77.07
2023-05-13T20:49:35.543Z,78.70
2023-05-13T20:52:04.858Z,77.92
2023-05-13T20:54:33.935Z,78.52
2023-05-13T20:57:03.301Z,78.56
2023-05-13T20:59:31.473Z,81.10
2023-05-13T21:01:59.364Z,81.51
2023-05-13T21:04:27.062Z,80.10
2023-05-13T21:06:54.530Z,79.99
2023-05-13T21:09:22.066Z,80.74
2023-05-13T21:11:49.575Z,81.55
2023-05-13T21:14:17.046Z,81.86
2023-05-13T21:16:44.587Z,82.40
2023-05-13T21:19:25.251Z,82.87
2023-05-13T21:21:52.682Z,82.71
2023-05-13T21:24:21.161Z,83.62
2023-05-13T21:26:49.974Z,84.72
2023-05-13T21:29:18.879Z,84.68
2023-05-13T21:31:47.711Z,85.17
2023-05-13T21:34:15.239Z,84.14
2023-05-13T21:36:42.868Z,85.58
2023-05-13T21:39:10.735Z,86.47
2023-05-13T21:41:38.428Z,86.27
2023-05-13T21:44:06.612Z,86.13
2023-05-13T21:46:34.205Z,87.69
2023-05-13T21:49:01.945Z,87.38
2023-05-13T21:51:29.673Z,87.86
2023-05-13T21:53:57.155Z,87.90
2023-05-13T21:56:24.695Z,87.56
2023-05-13T21:58:52.196Z,87.25
2023-05-13T22:01:19.786Z,88.45
2023-05-13T22:03:47.297Z,88.44
2023-05-13T22:06:14.959Z,89.83
2023-05-13T22:08:42.426Z,89.44
2023-05-13T22:11:10.021Z,88.26
2023-05-13T22:13:38.392Z,87.94
2023-05-13T22:16:05.986Z,87.61
2023-05-13T22:18:33.731Z,86.29
2023-05-13T22:21:01.428Z,87.04
2023-05-13T22:23:29.032Z,87.30
2023-05-13T22:25:56.384Z,88.23
2023-05-13T22:28:23.848Z,88.45
2023-05-13T22:30:52.314Z,89.80
2023-05-13T22:33:19.934Z,89.87
2023-05-13T22:35:47.578Z,89.47
2023-05-13T22:38:15.194Z,88.81
2023-05-13T22:40:42.919Z,88.98
2023-05-13T22:43:10.357Z,90.20
2023-05-13T22:45:38.153Z,90.28
2023-05-13T22:48:05.914Z,91.35
2023-05-13T22:50:33.557Z,91.60
2023-05-13T22:53:00.996Z,92.00
2023-05-13T22:55:28.471Z,91.51
2023-05-13T22:57:56.064Z,92.10
2023-05-13T23:00:23.700Z,92.31
2023-05-13T23:02:51.482Z,93.13
2023-05-13T23:05:19.437Z,88.12
2023-05-13T23:07:47.206Z,90.48
2023-05-13T23:10:14.760Z,91.27
2023-05-13T23:12:42.428Z,91.66
2023-05-13T23:15:11.920Z,94.07
2023-05-13T23:17:39.527Z,94.86
2023-05-13T23:20:07.796Z,94.93
2023-05-13T23:22:35.575Z,94.82
2023-05-13T23:25:04.018Z,94.39
2023-05-13T23:27:35.010Z,94.10
2023-05-13T23:30:02.536Z,94.66
2023-05-13T23:32:31.631Z,94.35
2023-05-13T23:34:59.215Z,94.74
2023-05-13T23:37:26.679Z,94.86
2023-05-13T23:39:54.120Z,95.44
2023-05-13T23:42:22.077Z,95.75
2023-05-13T23:44:49.573Z,94.40
2023-05-13T23:47:17.187Z,94.31
2023-05-13T23:49:44.680Z,93.50
2023-05-13T23:52:12.411Z,92.69
2023-05-13T23:54:39.856Z,92.33
2023-05-13T23:57:07.293Z,92.18
2023-05-13T23:59:34.865Z,90.86
